sensor_id;sensor_type;location;lat;lon;timestamp;P1;durP1;ratioP1;P2;durP2;ratioP2
5801;SDS011;2927;49.366;8.530;2023-08-17T12:21:45;6.85;;;6.05;;
5801;SDS011;2927;49.366;8.530;2023-08-17T12:24:15;7.37;;;6.20;;
5801;SDS011;2927;49.366;8.530;2023-08-17T12:26:42;5.53;;;4.93;;
5801;SDS011;2927;49.366;8.530;2023-08-17T12:29:08;11.63;;;5.15;;
5801;SDS011;2927;49.366;8.530;2023-08-17T12:31:34;6.10;;;4.80;;
5801;SDS011;2927;49.366;8.530;2023-08-17T12:34:00;5.47;;;5.07;;
5801;SDS011;2927;49.366;8.530;2023-08-17T12:36:28;4.55;;;4.15;;
5801;SDS011;2927;49.366;8.530;2023-08-17T12:38:54;4.93;;;4.60;;
5801;SDS011;2927;49.366;8.530;2023-08-17T12:41:20;4.45;;;4.15;;
5801;SDS011;2927;49.366;8.530;2023-08-17T12:43:46;7.30;;;4.20;;
5801;SDS011;2927;49.366;8.530;2023-08-17T12:46:11;4.78;;;4.30;;
5801;SDS011;2927;49.366;8.530;2023-08-17T12:48:37;5.77;;;4.30;;
5801;SDS011;2927;49.366;8.530;2023-08-17T12:51:03;4.85;;;4.10;;
5801;SDS011;2927;49.366;8.530;2023-08-17T12:53:29;6.40;;;3.70;;
5801;SDS011;2927;49.366;8.530;2023-08-17T12:55:55;6.10;;;4.77;;
5801;SDS011;2927;49.366;8.530;2023-08-17T12:58:20;5.23;;;4.83;;
5801;SDS011;2927;49.366;8.530;2023-08-17T13:00:46;4.80;;;4.30;;
5801;SDS011;2927;49.366;8.530;2023-08-17T13:03:15;4.90;;;4.43;;
5801;SDS011;2927;49.366;8.530;2023-08-17T13:05:42;4.40;;;3.92;;
5801;SDS011;2927;49.366;8.530;2023-08-17T13:08:08;4.27;;;3.93;;
5801;SDS011;2927;49.366;8.530;2023-08-17T13:10:34;4.65;;;4.25;;
5801;SDS011;2927;49.366;8.530;2023-08-17T13:12:59;6.00;;;5.07;;
5801;SDS011;2927;49.366;8.530;2023-08-17T13:15:25;4.87;;;4.43;;
5801;SDS011;2927;49.366;8.530;2023-08-17T13:17:51;5.90;;;5.30;;
5801;SDS011;2927;49.366;8.530;2023-08-17T13:20:17;5.50;;;4.80;;
5801;SDS011;2927;49.366;8.530;2023-08-17T13:22:43;5.97;;;5.22;;
5801;SDS011;2927;49.366;8.530;2023-08-17T13:25:08;5.57;;;5.17;;
5801;SDS011;2927;49.366;8.530;2023-08-17T13:27:34;5.37;;;4.87;;
5801;SDS011;2927;49.366;8.530;2023-08-17T13:29:59;6.63;;;5.10;;
5801;SDS011;2927;49.366;8.530;2023-08-17T13:32:26;5.47;;;4.67;;
5801;SDS011;2927;49.366;8.530;2023-08-17T13:34:52;7.30;;;5.93;;
5801;SDS011;2927;49.366;8.530;2023-08-17T13:37:18;6.97;;;4.97;;
5801;SDS011;2927;49.366;8.530;2023-08-17T13:39:44;6.43;;;5.73;;
5801;SDS011;2927;49.366;8.530;2023-08-17T13:42:10;7.30;;;6.60;;
5801;SDS011;2927;49.366;8.530;2023-08-17T13:44:36;9.47;;;7.03;;
5801;SDS011;2927;49.366;8.530;2023-08-17T13:47:01;5.87;;;5.27;;
5801;SDS011;2927;49.366;8.530;2023-08-17T13:49:27;10.43;;;5.07;;
5801;SDS011;2927;49.366;8.530;2023-08-17T13:51:53;5.70;;;5.20;;
5801;SDS011;2927;49.366;8.530;2023-08-17T13:54:19;7.27;;;5.20;;
5801;SDS011;2927;49.366;8.530;2023-08-17T13:56:44;6.47;;;4.50;;
5801;SDS011;2927;49.366;8.530;2023-08-17T13:59:10;6.33;;;4.70;;
5801;SDS011;2927;49.366;8.530;2023-08-17T14:01:36;4.57;;;3.97;;
5801;SDS011;2927;49.366;8.530;2023-08-17T14:04:01;6.23;;;4.27;;
5801;SDS011;2927;49.366;8.530;2023-08-17T14:06:28;4.77;;;4.30;;
5801;SDS011;2927;49.366;8.530;2023-08-17T14:08:54;3.63;;;3.37;;
5801;SDS011;2927;49.366;8.530;2023-08-17T14:11:20;3.67;;;3.20;;
5801;SDS011;2927;49.366;8.530;2023-08-17T14:13:45;3.77;;;3.33;;
5801;SDS011;2927;49.366;8.530;2023-08-17T14:16:11;6.13;;;4.07;;
5801;SDS011;2927;49.366;8.530;2023-08-17T14:18:36;3.67;;;3.42;;
5801;SDS011;2927;49.366;8.530;2023-08-17T14:21:02;3.38;;;2.83;;
5801;SDS011;2927;49.366;8.530;2023-08-17T14:23:27;4.05;;;3.47;;
5801;SDS011;2927;49.366;8.530;2023-08-17T14:25:53;5.57;;;3.40;;
5801;SDS011;2927;49.366;8.530;2023-08-17T14:28:19;3.38;;;3.20;;
5801;SDS011;2927;49.366;8.530;2023-08-17T14:30:45;3.40;;;3.08;;
5801;SDS011;2927;49.366;8.530;2023-08-17T14:33:10;3.05;;;2.92;;
5801;SDS011;2927;49.366;8.530;2023-08-17T14:35:37;3.70;;;3.22;;
5801;SDS011;2927;49.366;8.530;2023-08-17T14:38:03;3.00;;;2.75;;
5801;SDS011;2927;49.366;8.530;2023-08-17T14:40:29;3.42;;;3.22;;
5801;SDS011;2927;49.366;8.530;2023-08-17T14:42:54;3.15;;;2.85;;
5801;SDS011;2927;49.366;8.530;2023-08-17T14:45:20;4.43;;;2.95;;
5801;SDS011;2927;49.366;8.530;2023-08-17T14:47:45;4.05;;;3.78;;
5801;SDS011;2927;49.366;8.530;2023-08-17T14:50:11;3.30;;;3.10;;
5801;SDS011;2927;49.366;8.530;2023-08-17T14:52:39;4.75;;;2.90;;
5801;SDS011;2927;49.366;8.530;2023-08-17T14:55:05;4.53;;;2.78;;
5801;SDS011;2927;49.366;8.530;2023-08-17T14:57:30;3.55;;;3.35;;
5801;SDS011;2927;49.366;8.530;2023-08-17T14:59:56;2.72;;;2.63;;
5801;SDS011;2927;49.366;8.530;2023-08-17T15:02:21;2.88;;;2.67;;
5801;SDS011;2927;49.366;8.530;2023-08-17T15:04:47;2.95;;;2.75;;
5801;SDS011;2927;49.366;8.530;2023-08-17T15:07:13;2.45;;;2.35;;
5801;SDS011;2927;49.366;8.530;2023-08-17T15:09:38;5.13;;;4.10;;
5801;SDS011;2927;49.366;8.530;2023-08-17T15:12:04;3.47;;;3.17;;
5801;SDS011;2927;49.366;8.530;2023-08-17T15:14:30;5.55;;;3.38;;
5801;SDS011;2927;49.366;8.530;2023-08-17T15:16:56;2.97;;;2.78;;
5801;SDS011;2927;49.366;8.530;2023-08-17T15:19:21;2.58;;;2.47;;
5801;SDS011;2927;49.366;8.530;2023-08-17T15:21:48;4.00;;;2.60;;
5801;SDS011;2927;49.366;8.530;2023-08-17T15:24:13;3.30;;;3.10;;
5801;SDS011;2927;49.366;8.530;2023-08-17T15:26:39;2.22;;;2.13;;
5801;SDS011;2927;49.366;8.530;2023-08-17T15:29:05;3.90;;;2.72;;
5801;SDS011;2927;49.366;8.530;2023-08-17T15:31:31;2.50;;;2.40;;
5801;SDS011;2927;49.366;8.530;2023-08-17T15:33:56;6.97;;;3.50;;
5801;SDS011;2927;49.366;8.530;2023-08-17T15:36:22;3.67;;;2.78;;
5801;SDS011;2927;49.366;8.530;2023-08-17T15:38:49;3.13;;;2.83;;
5801;SDS011;2927;49.366;8.530;2023-08-17T15:41:15;2.72;;;2.63;;
5801;SDS011;2927;49.366;8.530;2023-08-17T15:43:42;2.25;;;2.15;;
5801;SDS011;2927;49.366;8.530;2023-08-17T15:46:08;4.38;;;2.97;;
5801;SDS011;2927;49.366;8.530;2023-08-17T15:48:35;3.38;;;2.88;;
5801;SDS011;2927;49.366;8.530;2023-08-17T15:51:00;2.03;;;1.92;;
5801;SDS011;2927;49.366;8.530;2023-08-17T15:53:26;4.38;;;2.55;;
5801;SDS011;2927;49.366;8.530;2023-08-17T15:55:51;2.45;;;2.35;;
5801;SDS011;2927;49.366;8.530;2023-08-17T15:58:17;5.45;;;2.63;;
5801;SDS011;2927;49.366;8.530;2023-08-17T16:00:42;2.97;;;2.72;;
5801;SDS011;2927;49.366;8.530;2023-08-17T16:03:08;2.78;;;2.58;;
5801;SDS011;2927;49.366;8.530;2023-08-17T16:05:34;2.88;;;2.60;;
5801;SDS011;2927;49.366;8.530;2023-08-17T16:07:59;3.42;;;3.22;;
5801;SDS011;2927;49.366;8.530;2023-08-17T16:10:25;2.33;;;2.22;;
5801;SDS011;2927;49.366;8.530;2023-08-17T16:12:51;3.38;;;2.50;;
5801;SDS011;2927;49.366;8.530;2023-08-17T16:15:17;5.93;;;3.13;;
5801;SDS011;2927;49.366;8.530;2023-08-17T16:17:42;3.92;;;3.30;;
5801;SDS011;2927;49.366;8.530;2023-08-17T16:20:08;4.80;;;3.15;;
5801;SDS011;2927;49.366;8.530;2023-08-17T16:22:34;4.22;;;3.55;;
5801;SDS011;2927;49.366;8.530;2023-08-17T16:25:00;3.85;;;3.45;;
5801;SDS011;2927;49.366;8.530;2023-08-17T16:27:26;4.07;;;3.70;;
5801;SDS011;2927;49.366;8.530;2023-08-17T16:29:51;3.42;;;3.13;;
5801;SDS011;2927;49.366;8.530;2023-08-17T16:32:17;3.75;;;3.53;;
5801;SDS011;2927;49.366;8.530;2023-08-17T16:34:42;3.92;;;3.20;;
5801;SDS011;2927;49.366;8.530;2023-08-17T16:37:09;3.60;;;3.38;;
5801;SDS011;2927;49.366;8.530;2023-08-17T16:39:34;3.70;;;3.40;;
5801;SDS011;2927;49.366;8.530;2023-08-17T16:42:00;3.42;;;3.03;;
5801;SDS011;2927;49.366;8.530;2023-08-17T16:44:26;3.10;;;2.90;;
5801;SDS011;2927;49.366;8.530;2023-08-17T16:46:51;4.03;;;2.85;;
5801;SDS011;2927;49.366;8.530;2023-08-17T16:49:17;3.45;;;3.10;;
5801;SDS011;2927;49.366;8.530;2023-08-17T16:51:42;3.90;;;3.60;;
5801;SDS011;2927;49.366;8.530;2023-08-17T16:54:08;6.75;;;3.58;;
5801;SDS011;2927;49.366;8.530;2023-08-17T16:56:34;7.40;;;3.58;;
5801;SDS011;2927;49.366;8.530;2023-08-17T16:59:00;4.78;;;3.30;;
5801;SDS011;2927;49.366;8.530;2023-08-17T17:01:25;4.63;;;4.13;;
5801;SDS011;2927;49.366;8.530;2023-08-17T17:03:51;4.00;;;3.70;;
5801;SDS011;2927;49.366;8.530;2023-08-17T17:06:18;4.65;;;3.72;;
5801;SDS011;2927;49.366;8.530;2023-08-17T17:08:43;6.43;;;3.78;;
5801;SDS011;2927;49.366;8.530;2023-08-17T17:11:09;4.25;;;3.17;;
5801;SDS011;2927;49.366;8.530;2023-08-17T17:13:34;3.60;;;3.13;;
5801;SDS011;2927;49.366;8.530;2023-08-17T17:16:01;5.28;;;3.53;;
5801;SDS011;2927;49.366;8.530;2023-08-17T17:18:26;3.03;;;2.83;;
5801;SDS011;2927;49.366;8.530;2023-08-17T17:20:52;3.63;;;3.28;;
5801;SDS011;2927;49.366;8.530;2023-08-17T17:23:18;4.35;;;3.15;;
5801;SDS011;2927;49.366;8.530;2023-08-17T17:25:43;6.75;;;3.50;;
5801;SDS011;2927;49.366;8.530;2023-08-17T17:28:09;4.80;;;3.47;;
5801;SDS011;2927;49.366;8.530;2023-08-17T17:30:34;3.63;;;3.40;;
5801;SDS011;2927;49.366;8.530;2023-08-17T17:33:00;4.93;;;3.30;;
5801;SDS011;2927;49.366;8.530;2023-08-17T17:35:25;3.03;;;2.83;;
5801;SDS011;2927;49.366;8.530;2023-08-17T17:37:51;5.13;;;3.47;;
5801;SDS011;2927;49.366;8.530;2023-08-17T17:40:16;5.70;;;3.97;;
5801;SDS011;2927;49.366;8.530;2023-08-17T17:42:42;4.57;;;4.13;;
5801;SDS011;2927;49.366;8.530;2023-08-17T17:45:08;5.30;;;3.77;;
5801;SDS011;2927;49.366;8.530;2023-08-17T17:47:33;3.50;;;3.30;;
5801;SDS011;2927;49.366;8.530;2023-08-17T17:50:03;5.27;;;4.10;;
5801;SDS011;2927;49.366;8.530;2023-08-17T17:52:29;5.40;;;4.40;;
5801;SDS011;2927;49.366;8.530;2023-08-17T17:54:55;5.97;;;4.07;;
5801;SDS011;2927;49.366;8.530;2023-08-17T17:57:21;3.60;;;3.30;;
5801;SDS011;2927;49.366;8.530;2023-08-17T17:59:46;4.17;;;3.80;;
5801;SDS011;2927;49.366;8.530;2023-08-17T18:02:13;3.90;;;3.30;;
5801;SDS011;2927;49.366;8.530;2023-08-17T18:04:39;3.40;;;3.20;;
5801;SDS011;2927;49.366;8.530;2023-08-17T18:07:05;8.23;;;3.33;;
5801;SDS011;2927;49.366;8.530;2023-08-17T18:09:34;5.77;;;3.20;;
5801;SDS011;2927;49.366;8.530;2023-08-17T18:12:00;4.23;;;3.93;;
5801;SDS011;2927;49.366;8.530;2023-08-17T18:14:25;5.17;;;4.67;;
5801;SDS011;2927;49.366;8.530;2023-08-17T18:16:51;3.83;;;3.53;;
5801;SDS011;2927;49.366;8.530;2023-08-17T18:19:16;3.80;;;3.50;;
5801;SDS011;2927;49.366;8.530;2023-08-17T18:21:42;5.90;;;3.63;;
5801;SDS011;2927;49.366;8.530;2023-08-17T18:24:08;5.30;;;4.47;;
5801;SDS011;2927;49.366;8.530;2023-08-17T18:26:33;6.60;;;4.10;;
5801;SDS011;2927;49.366;8.530;2023-08-17T18:28:59;5.07;;;3.60;;
5801;SDS011;2927;49.366;8.530;2023-08-17T18:31:25;4.13;;;3.73;;
5801;SDS011;2927;49.366;8.530;2023-08-17T18:33:51;5.00;;;3.80;;
5801;SDS011;2927;49.366;8.530;2023-08-17T18:36:17;4.90;;;4.10;;
5801;SDS011;2927;49.366;8.530;2023-08-17T18:38:42;3.60;;;3.30;;
5801;SDS011;2927;49.366;8.530;2023-08-17T18:41:09;4.00;;;3.70;;
5801;SDS011;2927;49.366;8.530;2023-08-17T18:43:35;4.50;;;4.20;;
5801;SDS011;2927;49.366;8.530;2023-08-17T18:46:01;5.83;;;4.03;;
5801;SDS011;2927;49.366;8.530;2023-08-17T18:48:27;4.93;;;4.07;;
5801;SDS011;2927;49.366;8.530;2023-08-17T18:50:52;4.40;;;4.00;;
5801;SDS011;2927;49.366;8.530;2023-08-17T18:53:18;4.67;;;4.20;;
5801;SDS011;2927;49.366;8.530;2023-08-17T18:55:43;3.90;;;3.70;;
5801;SDS011;2927;49.366;8.530;2023-08-17T18:58:09;3.80;;;3.37;;
5801;SDS011;2927;49.366;8.530;2023-08-17T19:00:35;3.70;;;3.50;;
5801;SDS011;2927;49.366;8.530;2023-08-17T19:03:00;4.40;;;4.00;;
5801;SDS011;2927;49.366;8.530;2023-08-17T19:05:26;7.07;;;3.70;;
5801;SDS011;2927;49.366;8.530;2023-08-17T19:07:51;4.77;;;4.40;;
5801;SDS011;2927;49.366;8.530;2023-08-17T19:10:17;4.60;;;4.20;;
5801;SDS011;2927;49.366;8.530;2023-08-17T19:12:43;4.60;;;4.10;;
5801;SDS011;2927;49.366;8.530;2023-08-17T19:15:09;5.80;;;4.00;;
5801;SDS011;2927;49.366;8.530;2023-08-17T19:17:35;4.03;;;3.73;;
5801;SDS011;2927;49.366;8.530;2023-08-17T19:20:02;8.03;;;4.43;;
5801;SDS011;2927;49.366;8.530;2023-08-17T19:22:28;5.20;;;4.33;;
5801;SDS011;2927;49.366;8.530;2023-08-17T19:24:53;5.10;;;4.60;;
5801;SDS011;2927;49.366;8.530;2023-08-17T19:27:19;5.53;;;4.07;;
5801;SDS011;2927;49.366;8.530;2023-08-17T19:29:44;6.83;;;4.73;;
5801;SDS011;2927;49.366;8.530;2023-08-17T19:32:11;4.27;;;3.87;;
5801;SDS011;2927;49.366;8.530;2023-08-17T19:34:36;4.40;;;4.10;;
5801;SDS011;2927;49.366;8.530;2023-08-17T19:37:02;5.30;;;4.90;;
5801;SDS011;2927;49.366;8.530;2023-08-17T19:39:27;5.77;;;4.20;;
5801;SDS011;2927;49.366;8.530;2023-08-17T19:41:53;5.13;;;4.73;;
5801;SDS011;2927;49.366;8.530;2023-08-17T19:44:19;5.37;;;4.90;;
5801;SDS011;2927;49.366;8.530;2023-08-17T19:46:45;4.83;;;4.43;;
5801;SDS011;2927;49.366;8.530;2023-08-17T19:49:11;5.90;;;4.97;;
5801;SDS011;2927;49.366;8.530;2023-08-17T19:51:36;7.53;;;5.00;;
5801;SDS011;2927;49.366;8.530;2023-08-17T19:54:02;5.80;;;4.87;;
5801;SDS011;2927;49.366;8.530;2023-08-17T19:56:28;5.10;;;4.60;;
5801;SDS011;2927;49.366;8.530;2023-08-17T19:58:54;5.20;;;4.67;;
5801;SDS011;2927;49.366;8.530;2023-08-17T20:01:19;5.30;;;4.90;;
5801;SDS011;2927;49.366;8.530;2023-08-17T20:03:46;5.70;;;4.77;;
5801;SDS011;2927;49.366;8.530;2023-08-17T20:06:14;5.70;;;5.07;;
5801;SDS011;2927;49.366;8.530;2023-08-17T20:08:40;6.10;;;5.47;;
5801;SDS011;2927;49.366;8.530;2023-08-17T20:11:06;7.80;;;4.77;;
5801;SDS011;2927;49.366;8.530;2023-08-17T20:13:33;6.10;;;5.03;;
5801;SDS011;2927;49.366;8.530;2023-08-17T20:15:59;11.57;;;4.77;;
5801;SDS011;2927;49.366;8.530;2023-08-17T20:18:24;6.33;;;5.67;;
5801;SDS011;2927;49.366;8.530;2023-08-17T20:20:50;5.40;;;4.90;;
5801;SDS011;2927;49.366;8.530;2023-08-17T20:23:18;6.13;;;5.47;;
5801;SDS011;2927;49.366;8.530;2023-08-17T20:25:45;6.40;;;5.53;;
5801;SDS011;2927;49.366;8.530;2023-08-17T20:28:13;6.13;;;5.43;;
5801;SDS011;2927;49.366;8.530;2023-08-17T20:30:40;11.43;;;4.93;;
5801;SDS011;2927;49.366;8.530;2023-08-17T20:33:07;9.43;;;5.03;;
5801;SDS011;2927;49.366;8.530;2023-08-17T20:35:33;6.07;;;5.47;;
5801;SDS011;2927;49.366;8.530;2023-08-17T20:37:59;7.23;;;5.77;;
5801;SDS011;2927;49.366;8.530;2023-08-17T20:40:25;6.80;;;6.17;;
5801;SDS011;2927;49.366;8.530;2023-08-17T20:42:50;4.70;;;4.40;;
5801;SDS011;2927;49.366;8.530;2023-08-17T20:45:16;8.33;;;5.43;;
5801;SDS011;2927;49.366;8.530;2023-08-17T20:47:41;6.17;;;5.43;;
5801;SDS011;2927;49.366;8.530;2023-08-17T20:50:07;5.70;;;5.10;;
5801;SDS011;2927;49.366;8.530;2023-08-17T20:52:33;6.10;;;5.53;;
5801;SDS011;2927;49.366;8.530;2023-08-17T20:54:58;5.97;;;5.43;;
5801;SDS011;2927;49.366;8.530;2023-08-17T20:57:25;6.03;;;5.43;;
5801;SDS011;2927;49.366;8.530;2023-08-17T20:59:50;5.50;;;5.00;;
5801;SDS011;2927;49.366;8.530;2023-08-17T21:02:16;6.20;;;5.70;;
5801;SDS011;2927;49.366;8.530;2023-08-17T21:04:41;6.30;;;5.70;;
5801;SDS011;2927;49.366;8.530;2023-08-17T21:07:07;6.40;;;5.87;;
5801;SDS011;2927;49.366;8.530;2023-08-17T21:09:32;6.43;;;5.80;;
5801;SDS011;2927;49.366;8.530;2023-08-17T21:11:58;6.00;;;5.50;;
5801;SDS011;2927;49.366;8.530;2023-08-17T21:14:26;8.70;;;5.97;;
5801;SDS011;2927;49.366;8.530;2023-08-17T21:16:52;6.37;;;5.33;;
5801;SDS011;2927;49.366;8.530;2023-08-17T21:19:18;7.80;;;6.60;;
5801;SDS011;2927;49.366;8.530;2023-08-17T21:21:43;7.60;;;5.77;;
5801;SDS011;2927;49.366;8.530;2023-08-17T21:24:09;6.90;;;6.20;;
5801;SDS011;2927;49.366;8.530;2023-08-17T21:26:34;7.93;;;6.50;;
5801;SDS011;2927;49.366;8.530;2023-08-17T21:29:00;6.90;;;6.30;;
5801;SDS011;2927;49.366;8.530;2023-08-17T21:31:26;7.20;;;6.50;;
5801;SDS011;2927;49.366;8.530;2023-08-17T21:33:51;6.27;;;5.67;;
5801;SDS011;2927;49.366;8.530;2023-08-17T21:36:17;7.00;;;6.40;;
5801;SDS011;2927;49.366;8.530;2023-08-17T21:38:42;9.93;;;6.30;;
5801;SDS011;2927;49.366;8.530;2023-08-17T21:41:08;7.50;;;6.10;;
5801;SDS011;2927;49.366;8.530;2023-08-17T21:43:33;11.33;;;6.30;;
5801;SDS011;2927;49.366;8.530;2023-08-17T21:45:59;7.23;;;6.53;;
5801;SDS011;2927;49.366;8.530;2023-08-17T21:48:28;7.70;;;6.33;;
5801;SDS011;2927;49.366;8.530;2023-08-17T21:50:54;7.00;;;5.73;;
5801;SDS011;2927;49.366;8.530;2023-08-17T21:53:21;7.80;;;5.43;;
5801;SDS011;2927;49.366;8.530;2023-08-17T21:55:47;8.17;;;6.77;;
5801;SDS011;2927;49.366;8.530;2023-08-17T21:58:13;6.67;;;6.07;;
5801;SDS011;2927;49.366;8.530;2023-08-17T22:00:43;7.50;;;6.70;;
5801;SDS011;2927;49.366;8.530;2023-08-17T22:03:09;9.63;;;7.10;;
5801;SDS011;2927;49.366;8.530;2023-08-17T22:05:36;9.27;;;6.87;;
5801;SDS011;2927;49.366;8.530;2023-08-17T22:08:03;7.47;;;6.77;;
5801;SDS011;2927;49.366;8.530;2023-08-17T22:10:30;8.03;;;6.00;;
5801;SDS011;2927;49.366;8.530;2023-08-17T22:12:55;7.87;;;6.73;;
5801;SDS011;2927;49.366;8.530;2023-08-17T22:15:22;7.07;;;6.47;;
5801;SDS011;2927;49.366;8.530;2023-08-17T22:17:47;7.33;;;6.53;;
5801;SDS011;2927;49.366;8.530;2023-08-17T22:20:13;10.77;;;7.30;;
5801;SDS011;2927;49.366;8.530;2023-08-17T22:22:39;10.97;;;6.90;;
5801;SDS011;2927;49.366;8.530;2023-08-17T22:25:04;7.50;;;6.27;;
5801;SDS011;2927;49.366;8.530;2023-08-17T22:27:30;7.27;;;6.53;;
5801;SDS011;2927;49.366;8.530;2023-08-17T22:29:56;7.93;;;6.30;;
5801;SDS011;2927;49.366;8.530;2023-08-17T22:32:22;11.93;;;7.10;;
5801;SDS011;2927;49.366;8.530;2023-08-17T22:34:48;6.70;;;6.00;;
5801;SDS011;2927;49.366;8.530;2023-08-17T22:37:14;9.80;;;5.90;;
5801;SDS011;2927;49.366;8.530;2023-08-17T22:39:39;7.87;;;6.93;;
5801;SDS011;2927;49.366;8.530;2023-08-17T22:42:06;8.10;;;6.20;;
5801;SDS011;2927;49.366;8.530;2023-08-17T22:44:31;7.63;;;6.40;;
5801;SDS011;2927;49.366;8.530;2023-08-17T22:46:57;7.13;;;6.30;;
5801;SDS011;2927;49.366;8.530;2023-08-17T22:49:22;7.63;;;6.93;;
5801;SDS011;2927;49.366;8.530;2023-08-17T22:51:49;7.83;;;7.10;;
5801;SDS011;2927;49.366;8.530;2023-08-17T22:54:15;8.20;;;7.37;;
5801;SDS011;2927;49.366;8.530;2023-08-17T22:56:41;7.63;;;6.93;;
5801;SDS011;2927;49.366;8.530;2023-08-17T22:59:07;7.57;;;6.50;;
5801;SDS011;2927;49.366;8.530;2023-08-17T23:01:33;8.73;;;7.23;;
5801;SDS011;2927;49.366;8.530;2023-08-17T23:03:59;7.77;;;7.07;;
5801;SDS011;2927;49.366;8.530;2023-08-17T23:06:25;9.90;;;6.77;;
5801;SDS011;2927;49.366;8.530;2023-08-17T23:08:50;7.20;;;6.50;;
5801;SDS011;2927;49.366;8.530;2023-08-17T23:11:16;7.63;;;6.90;;
5801;SDS011;2927;49.366;8.530;2023-08-17T23:13:42;8.07;;;7.27;;
5801;SDS011;2927;49.366;8.530;2023-08-17T23:16:07;11.70;;;7.37;;
5801;SDS011;2927;49.366;8.530;2023-08-17T23:18:34;11.90;;;6.63;;
5801;SDS011;2927;49.366;8.530;2023-08-17T23:20:59;11.93;;;8.00;;
5801;SDS011;2927;49.366;8.530;2023-08-17T23:23:25;11.07;;;7.30;;
5801;SDS011;2927;49.366;8.530;2023-08-17T23:25:51;7.40;;;6.77;;
5801;SDS011;2927;49.366;8.530;2023-08-17T23:28:16;10.50;;;7.30;;
5801;SDS011;2927;49.366;8.530;2023-08-17T23:30:42;12.80;;;8.20;;
5801;SDS011;2927;49.366;8.530;2023-08-17T23:33:07;8.53;;;7.27;;
5801;SDS011;2927;49.366;8.530;2023-08-17T23:35:34;7.97;;;6.50;;
5801;SDS011;2927;49.366;8.530;2023-08-17T23:38:00;8.30;;;7.07;;
5801;SDS011;2927;49.366;8.530;2023-08-17T23:40:26;7.60;;;6.53;;
5801;SDS011;2927;49.366;8.530;2023-08-17T23:42:52;8.70;;;7.00;;
5801;SDS011;2927;49.366;8.530;2023-08-17T23:45:17;7.10;;;6.47;;
5801;SDS011;2927;49.366;8.530;2023-08-17T23:47:43;10.20;;;6.10;;
5801;SDS011;2927;49.366;8.530;2023-08-17T23:50:09;9.67;;;6.47;;
5801;SDS011;2927;49.366;8.530;2023-08-17T23:52:35;8.80;;;7.90;;
5801;SDS011;2927;49.366;8.530;2023-08-17T23:55:01;7.70;;;6.73;;
5801;SDS011;2927;49.366;8.530;2023-08-17T23:57:28;8.43;;;7.00;;
5801;SDS011;2927;49.366;8.530;2023-08-17T23:59:54;9.03;;;7.80;;
